sensor_id;sensor_type;location;lat;lon;timestamp;temperature;humidity
16114;DHT22;8161;-33.910;151.156;2022-12-20T00:01:27;22.50;99.90
16114;DHT22;8161;-33.910;151.156;2022-12-20T00:03:57;22.40;99.90
16114;DHT22;8161;-33.910;151.156;2022-12-20T00:06:25;22.90;99.90
16114;DHT22;8161;-33.910;151.156;2022-12-20T00:08:57;22.50;99.90
16114;DHT22;8161;-33.910;151.156;2022-12-20T00:11:26;22.30;99.90
16114;DHT22;8161;-33.910;151.156;2022-12-20T00:13:53;22.60;99.90
16114;DHT22;8161;-33.910;151.156;2022-12-20T00:16:23;22.80;99.90
16114;DHT22;8161;-33.910;151.156;2022-12-20T00:18:56;22.70;99.90
16114;DHT22;8161;-33.910;151.156;2022-12-20T00:21:24;25.80;99.90
16114;DHT22;8161;-33.910;151.156;2022-12-20T00:23:52;22.80;99.90
16114;DHT22;8161;-33.910;151.156;2022-12-20T00:26:24;22.70;99.90
16114;DHT22;8161;-33.910;151.156;2022-12-20T00:28:51;22.80;99.90
16114;DHT22;8161;-33.910;151.156;2022-12-20T00:31:20;22.50;99.90
16114;DHT22;8161;-33.910;151.156;2022-12-20T00:33:52;22.50;99.90
16114;DHT22;8161;-33.910;151.156;2022-12-20T00:36:21;22.60;99.90
16114;DHT22;8161;-33.910;151.156;2022-12-20T00:38:51;22.20;99.90
16114;DHT22;8161;-33.910;151.156;2022-12-20T00:41:22;22.20;99.90
16114;DHT22;8161;-33.910;151.156;2022-12-20T00:43:49;22.50;99.90
16114;DHT22;8161;-33.910;151.156;2022-12-20T00:46:18;22.30;99.90
16114;DHT22;8161;-33.910;151.156;2022-12-20T00:48:46;22.60;99.90
16114;DHT22;8161;-33.910;151.156;2022-12-20T00:51:16;22.10;99.90
16114;DHT22;8161;-33.910;151.156;2022-12-20T00:53:44;22.50;99.90
16114;DHT22;8161;-33.910;151.156;2022-12-20T00:56:14;22.30;99.90
16114;DHT22;8161;-33.910;151.156;2022-12-20T00:58:42;22.30;99.90
16114;DHT22;8161;-33.910;151.156;2022-12-20T01:01:19;22.30;99.90
16114;DHT22;8161;-33.910;151.156;2022-12-20T01:03:49;22.10;99.90
16114;DHT22;8161;-33.910;151.156;2022-12-20T01:06:17;22.30;99.90
16114;DHT22;8161;-33.910;151.156;2022-12-20T01:08:45;22.10;99.90
16114;DHT22;8161;-33.910;151.156;2022-12-20T01:11:17;22.30;99.90
16114;DHT22;8161;-33.910;151.156;2022-12-20T01:13:48;22.60;99.90
16114;DHT22;8161;-33.910;151.156;2022-12-20T01:16:19;22.90;99.90
16114;DHT22;8161;-33.910;151.156;2022-12-20T01:18:48;22.80;99.90
16114;DHT22;8161;-33.910;151.156;2022-12-20T01:21:17;22.70;99.90
16114;DHT22;8161;-33.910;151.156;2022-12-20T01:23:45;22.70;99.90
16114;DHT22;8161;-33.910;151.156;2022-12-20T01:26:16;22.50;99.90
16114;DHT22;8161;-33.910;151.156;2022-12-20T01:28:46;22.70;99.90
16114;DHT22;8161;-33.910;151.156;2022-12-20T01:31:16;23.00;99.90
16114;DHT22;8161;-33.910;151.156;2022-12-20T01:33:44;22.90;99.90
16114;DHT22;8161;-33.910;151.156;2022-12-20T01:36:15;23.00;99.90
16114;DHT22;8161;-33.910;151.156;2022-12-20T01:38:42;23.20;99.90
16114;DHT22;8161;-33.910;151.156;2022-12-20T01:41:21;23.10;99.90
16114;DHT22;8161;-33.910;151.156;2022-12-20T01:43:52;23.10;99.90
16114;DHT22;8161;-33.910;151.156;2022-12-20T01:46:22;23.60;99.90
16114;DHT22;8161;-33.910;151.156;2022-12-20T01:51:31;23.90;99.90
16114;DHT22;8161;-33.910;151.156;2022-12-20T01:54:09;24.00;99.90
16114;DHT22;8161;-33.910;151.156;2022-12-20T01:56:39;24.00;99.90
16114;DHT22;8161;-33.910;151.156;2022-12-20T01:59:07;24.90;99.90
16114;DHT22;8161;-33.910;151.156;2022-12-20T02:01:35;24.90;99.90
16114;DHT22;8161;-33.910;151.156;2022-12-20T02:04:03;25.00;99.90
16114;DHT22;8161;-33.910;151.156;2022-12-20T02:06:30;25.10;99.90
16114;DHT22;8161;-33.910;151.156;2022-12-20T02:08:59;25.00;99.90
16114;DHT22;8161;-33.910;151.156;2022-12-20T02:14:21;25.20;99.90
16114;DHT22;8161;-33.910;151.156;2022-12-20T02:25:58;24.80;99.90
16114;DHT22;8161;-33.910;151.156;2022-12-20T02:31:08;25.50;99.90
16114;DHT22;8161;-33.910;151.156;2022-12-20T02:33:38;25.20;99.90
16114;DHT22;8161;-33.910;151.156;2022-12-20T02:36:08;25.70;99.90
16114;DHT22;8161;-33.910;151.156;2022-12-20T02:38:36;25.80;99.90
16114;DHT22;8161;-33.910;151.156;2022-12-20T02:41:17;25.50;99.90
16114;DHT22;8161;-33.910;151.156;2022-12-20T02:43:49;25.80;99.90
16114;DHT22;8161;-33.910;151.156;2022-12-20T02:46:32;26.20;99.90
16114;DHT22;8161;-33.910;151.156;2022-12-20T02:49:04;25.80;99.90
16114;DHT22;8161;-33.910;151.156;2022-12-20T02:51:32;25.70;99.90
16114;DHT22;8161;-33.910;151.156;2022-12-20T02:54:01;26.30;99.90
16114;DHT22;8161;-33.910;151.156;2022-12-20T02:56:40;26.30;99.90
16114;DHT22;8161;-33.910;151.156;2022-12-20T02:59:14;26.70;99.90
16114;DHT22;8161;-33.910;151.156;2022-12-20T03:01:53;25.90;99.90
16114;DHT22;8161;-33.910;151.156;2022-12-20T03:04:24;26.50;99.90
16114;DHT22;8161;-33.910;151.156;2022-12-20T03:07:04;25.80;99.90
16114;DHT22;8161;-33.910;151.156;2022-12-20T03:09:38;25.90;99.90
16114;DHT22;8161;-33.910;151.156;2022-12-20T03:12:06;26.00;99.90
16114;DHT22;8161;-33.910;151.156;2022-12-20T03:14:33;26.10;99.90
16114;DHT22;8161;-33.910;151.156;2022-12-20T03:17:01;26.50;99.90
16114;DHT22;8161;-33.910;151.156;2022-12-20T03:19:29;27.00;99.90
16114;DHT22;8161;-33.910;151.156;2022-12-20T03:21:56;26.10;99.90
16114;DHT22;8161;-33.910;151.156;2022-12-20T03:24:25;26.30;99.90
16114;DHT22;8161;-33.910;151.156;2022-12-20T03:26:54;26.70;99.90
16114;DHT22;8161;-33.910;151.156;2022-12-20T03:29:21;27.20;99.90
16114;DHT22;8161;-33.910;151.156;2022-12-20T03:31:49;26.30;99.90
16114;DHT22;8161;-33.910;151.156;2022-12-20T03:34:16;26.60;99.90
16114;DHT22;8161;-33.910;151.156;2022-12-20T03:36:43;27.10;99.90
16114;DHT22;8161;-33.910;151.156;2022-12-20T03:39:10;26.70;99.90
16114;DHT22;8161;-33.910;151.156;2022-12-20T03:41:38;26.30;99.90
16114;DHT22;8161;-33.910;151.156;2022-12-20T03:44:05;26.70;99.90
16114;DHT22;8161;-33.910;151.156;2022-12-20T03:46:32;26.60;99.90
16114;DHT22;8161;-33.910;151.156;2022-12-20T03:48:59;26.50;99.90
16114;DHT22;8161;-33.910;151.156;2022-12-20T03:51:27;26.60;99.90
16114;DHT22;8161;-33.910;151.156;2022-12-20T03:53:54;26.60;99.90
16114;DHT22;8161;-33.910;151.156;2022-12-20T03:56:21;26.60;99.90
16114;DHT22;8161;-33.910;151.156;2022-12-20T03:58:49;26.60;99.90
16114;DHT22;8161;-33.910;151.156;2022-12-20T04:01:27;26.80;99.90
16114;DHT22;8161;-33.910;151.156;2022-12-20T04:03:55;26.90;99.90
16114;DHT22;8161;-33.910;151.156;2022-12-20T04:06:23;27.20;99.90
16114;DHT22;8161;-33.910;151.156;2022-12-20T04:08:50;26.90;99.90
16114;DHT22;8161;-33.910;151.156;2022-12-20T04:11:17;26.90;99.90
16114;DHT22;8161;-33.910;151.156;2022-12-20T04:13:47;27.20;99.90
16114;DHT22;8161;-33.910;151.156;2022-12-20T04:16:16;26.90;99.90
16114;DHT22;8161;-33.910;151.156;2022-12-20T04:18:44;27.50;99.90
16114;DHT22;8161;-33.910;151.156;2022-12-20T04:21:12;27.00;99.90
16114;DHT22;8161;-33.910;151.156;2022-12-20T04:23:41;26.70;99.90
16114;DHT22;8161;-33.910;151.156;2022-12-20T04:26:09;27.20;99.90
16114;DHT22;8161;-33.910;151.156;2022-12-20T04:28:38;27.60;99.90
16114;DHT22;8161;-33.910;151.156;2022-12-20T04:31:06;27.10;99.90
16114;DHT22;8161;-33.910;151.156;2022-12-20T04:33:33;27.70;99.90
16114;DHT22;8161;-33.910;151.156;2022-12-20T04:36:01;27.00;99.90
16114;DHT22;8161;-33.910;151.156;2022-12-20T04:38:28;27.10;99.90
16114;DHT22;8161;-33.910;151.156;2022-12-20T04:40:56;27.40;99.90
16114;DHT22;8161;-33.910;151.156;2022-12-20T04:43:24;27.00;99.90
16114;DHT22;8161;-33.910;151.156;2022-12-20T04:45:53;27.00;99.90
16114;DHT22;8161;-33.910;151.156;2022-12-20T04:48:26;26.90;99.90
16114;DHT22;8161;-33.910;151.156;2022-12-20T04:50:54;27.10;99.90
16114;DHT22;8161;-33.910;151.156;2022-12-20T04:53:23;27.50;99.90
16114;DHT22;8161;-33.910;151.156;2022-12-20T04:56:04;27.50;99.90
16114;DHT22;8161;-33.910;151.156;2022-12-20T04:58:31;27.70;99.90
16114;DHT22;8161;-33.910;151.156;2022-12-20T05:00:58;27.60;99.90
16114;DHT22;8161;-33.910;151.156;2022-12-20T05:03:27;27.20;99.90
16114;DHT22;8161;-33.910;151.156;2022-12-20T05:05:54;27.60;99.90
16114;DHT22;8161;-33.910;151.156;2022-12-20T05:08:21;28.00;99.90
16114;DHT22;8161;-33.910;151.156;2022-12-20T05:10:49;27.80;99.90
16114;DHT22;8161;-33.910;151.156;2022-12-20T05:13:16;27.70;99.90
16114;DHT22;8161;-33.910;151.156;2022-12-20T05:15:44;27.80;99.90
16114;DHT22;8161;-33.910;151.156;2022-12-20T05:18:11;27.90;99.90
16114;DHT22;8161;-33.910;151.156;2022-12-20T05:20:38;27.30;99.90
16114;DHT22;8161;-33.910;151.156;2022-12-20T05:23:06;27.50;99.90
16114;DHT22;8161;-33.910;151.156;2022-12-20T05:25:48;27.60;99.90
16114;DHT22;8161;-33.910;151.156;2022-12-20T05:28:30;27.20;99.90
16114;DHT22;8161;-33.910;151.156;2022-12-20T05:30:57;27.70;99.90
16114;DHT22;8161;-33.910;151.156;2022-12-20T05:33:26;27.70;99.90
16114;DHT22;8161;-33.910;151.156;2022-12-20T05:35:54;28.40;99.90
16114;DHT22;8161;-33.910;151.156;2022-12-20T05:38:22;28.40;99.90
16114;DHT22;8161;-33.910;151.156;2022-12-20T05:40:50;27.60;99.90
16114;DHT22;8161;-33.910;151.156;2022-12-20T05:43:18;27.90;99.90
16114;DHT22;8161;-33.910;151.156;2022-12-20T05:45:48;28.00;99.90
16114;DHT22;8161;-33.910;151.156;2022-12-20T05:48:17;28.60;99.90
16114;DHT22;8161;-33.910;151.156;2022-12-20T05:50:47;28.70;99.90
16114;DHT22;8161;-33.910;151.156;2022-12-20T05:53:16;28.60;99.90
16114;DHT22;8161;-33.910;151.156;2022-12-20T05:55:53;28.00;99.90
16114;DHT22;8161;-33.910;151.156;2022-12-20T05:58:20;28.40;99.90
16114;DHT22;8161;-33.910;151.156;2022-12-20T06:00:48;28.20;99.90
16114;DHT22;8161;-33.910;151.156;2022-12-20T06:03:15;28.60;99.90
16114;DHT22;8161;-33.910;151.156;2022-12-20T06:05:43;28.20;99.90
16114;DHT22;8161;-33.910;151.156;2022-12-20T06:08:12;28.50;99.90
16114;DHT22;8161;-33.910;151.156;2022-12-20T06:10:40;27.90;99.90
16114;DHT22;8161;-33.910;151.156;2022-12-20T06:13:08;28.20;99.90
16114;DHT22;8161;-33.910;151.156;2022-12-20T06:15:36;27.80;99.90
16114;DHT22;8161;-33.910;151.156;2022-12-20T06:18:05;28.00;99.90
16114;DHT22;8161;-33.910;151.156;2022-12-20T06:20:36;28.00;99.90
16114;DHT22;8161;-33.910;151.156;2022-12-20T06:23:03;28.00;99.90
16114;DHT22;8161;-33.910;151.156;2022-12-20T06:25:31;27.80;99.90
16114;DHT22;8161;-33.910;151.156;2022-12-20T06:27:59;28.10;99.90
16114;DHT22;8161;-33.910;151.156;2022-12-20T06:30:27;28.10;99.90
16114;DHT22;8161;-33.910;151.156;2022-12-20T06:32:54;27.30;99.90
16114;DHT22;8161;-33.910;151.156;2022-12-20T06:35:21;27.40;99.90
16114;DHT22;8161;-33.910;151.156;2022-12-20T06:37:49;27.30;99.90
16114;DHT22;8161;-33.910;151.156;2022-12-20T06:40:16;27.20;99.90
16114;DHT22;8161;-33.910;151.156;2022-12-20T06:42:43;27.30;99.90
16114;DHT22;8161;-33.910;151.156;2022-12-20T06:45:11;26.40;99.90
16114;DHT22;8161;-33.910;151.156;2022-12-20T06:47:38;26.50;99.90
16114;DHT22;8161;-33.910;151.156;2022-12-20T06:50:06;26.80;99.90
16114;DHT22;8161;-33.910;151.156;2022-12-20T06:52:33;26.70;99.90
16114;DHT22;8161;-33.910;151.156;2022-12-20T06:55:01;26.30;99.90
16114;DHT22;8161;-33.910;151.156;2022-12-20T06:57:30;26.90;99.90
16114;DHT22;8161;-33.910;151.156;2022-12-20T06:59:58;26.10;99.90
16114;DHT22;8161;-33.910;151.156;2022-12-20T07:02:25;25.90;99.90
16114;DHT22;8161;-33.910;151.156;2022-12-20T07:04:53;26.40;99.90
16114;DHT22;8161;-33.910;151.156;2022-12-20T07:07:21;25.80;99.90
16114;DHT22;8161;-33.910;151.156;2022-12-20T07:09:48;25.80;99.90
16114;DHT22;8161;-33.910;151.156;2022-12-20T07:12:15;25.60;99.90
16114;DHT22;8161;-33.910;151.156;2022-12-20T07:14:43;25.20;99.90
16114;DHT22;8161;-33.910;151.156;2022-12-20T07:17:10;24.70;99.90
16114;DHT22;8161;-33.910;151.156;2022-12-20T07:19:37;24.90;99.90
16114;DHT22;8161;-33.910;151.156;2022-12-20T07:22:05;24.30;99.90
16114;DHT22;8161;-33.910;151.156;2022-12-20T07:24:33;24.30;99.90
16114;DHT22;8161;-33.910;151.156;2022-12-20T07:27:00;24.50;99.90
16114;DHT22;8161;-33.910;151.156;2022-12-20T07:29:28;24.40;99.90
16114;DHT22;8161;-33.910;151.156;2022-12-20T07:31:56;24.30;99.90
16114;DHT22;8161;-33.910;151.156;2022-12-20T07:34:23;24.50;99.90
16114;DHT22;8161;-33.910;151.156;2022-12-20T07:36:50;24.40;99.90
16114;DHT22;8161;-33.910;151.156;2022-12-20T07:39:17;24.50;99.90
16114;DHT22;8161;-33.910;151.156;2022-12-20T07:41:47;24.50;99.90
16114;DHT22;8161;-33.910;151.156;2022-12-20T07:44:15;24.50;99.90
16114;DHT22;8161;-33.910;151.156;2022-12-20T07:46:42;24.50;99.90
16114;DHT22;8161;-33.910;151.156;2022-12-20T07:49:10;24.40;99.90
16114;DHT22;8161;-33.910;151.156;2022-12-20T07:51:44;24.50;99.90
16114;DHT22;8161;-33.910;151.156;2022-12-20T07:54:34;23.80;99.90
16114;DHT22;8161;-33.910;151.156;2022-12-20T07:57:14;24.30;99.90
16114;DHT22;8161;-33.910;151.156;2022-12-20T07:59:48;24.10;99.90
16114;DHT22;8161;-33.910;151.156;2022-12-20T08:02:30;23.80;99.90
16114;DHT22;8161;-33.910;151.156;2022-12-20T08:05:00;23.90;99.90
16114;DHT22;8161;-33.910;151.156;2022-12-20T08:07:29;23.70;99.90
16114;DHT22;8161;-33.910;151.156;2022-12-20T08:09:57;23.60;99.90
16114;DHT22;8161;-33.910;151.156;2022-12-20T08:12:25;23.50;99.90
16114;DHT22;8161;-33.910;151.156;2022-12-20T08:14:56;23.00;99.90
16114;DHT22;8161;-33.910;151.156;2022-12-20T08:17:23;23.40;99.90
16114;DHT22;8161;-33.910;151.156;2022-12-20T08:19:51;23.20;99.90
16114;DHT22;8161;-33.910;151.156;2022-12-20T08:22:21;23.30;99.90
16114;DHT22;8161;-33.910;151.156;2022-12-20T08:24:48;23.10;99.90
16114;DHT22;8161;-33.910;151.156;2022-12-20T08:27:15;22.70;99.90
16114;DHT22;8161;-33.910;151.156;2022-12-20T08:29:43;22.40;99.90
16114;DHT22;8161;-33.910;151.156;2022-12-20T08:32:10;22.60;99.90
16114;DHT22;8161;-33.910;151.156;2022-12-20T08:34:39;22.30;99.90
16114;DHT22;8161;-33.910;151.156;2022-12-20T08:37:06;22.40;99.90
16114;DHT22;8161;-33.910;151.156;2022-12-20T08:39:34;22.70;99.90
16114;DHT22;8161;-33.910;151.156;2022-12-20T08:42:04;22.20;99.90
16114;DHT22;8161;-33.910;151.156;2022-12-20T08:44:31;22.60;99.90
16114;DHT22;8161;-33.910;151.156;2022-12-20T08:46:59;21.80;99.90
16114;DHT22;8161;-33.910;151.156;2022-12-20T08:49:26;22.20;99.90
16114;DHT22;8161;-33.910;151.156;2022-12-20T08:51:53;22.10;99.90
16114;DHT22;8161;-33.910;151.156;2022-12-20T08:54:20;22.00;99.90
16114;DHT22;8161;-33.910;151.156;2022-12-20T08:56:48;21.70;99.90
16114;DHT22;8161;-33.910;151.156;2022-12-20T08:59:15;22.20;99.90
16114;DHT22;8161;-33.910;151.156;2022-12-20T09:01:42;22.00;99.90
16114;DHT22;8161;-33.910;151.156;2022-12-20T09:04:10;22.10;99.90
16114;DHT22;8161;-33.910;151.156;2022-12-20T09:06:38;22.10;99.90
16114;DHT22;8161;-33.910;151.156;2022-12-20T09:09:06;22.10;99.90
16114;DHT22;8161;-33.910;151.156;2022-12-20T09:11:33;21.90;99.90
16114;DHT22;8161;-33.910;151.156;2022-12-20T09:14:00;21.30;99.90
16114;DHT22;8161;-33.910;151.156;2022-12-20T09:16:32;21.90;99.90
16114;DHT22;8161;-33.910;151.156;2022-12-20T09:19:00;21.50;99.90
16114;DHT22;8161;-33.910;151.156;2022-12-20T09:21:28;21.30;99.90
16114;DHT22;8161;-33.910;151.156;2022-12-20T09:23:56;21.40;99.90
16114;DHT22;8161;-33.910;151.156;2022-12-20T09:26:24;21.20;99.90
16114;DHT22;8161;-33.910;151.156;2022-12-20T09:28:52;21.40;99.90
16114;DHT22;8161;-33.910;151.156;2022-12-20T09:31:22;21.70;99.90
16114;DHT22;8161;-33.910;151.156;2022-12-20T09:33:53;21.40;99.90
16114;DHT22;8161;-33.910;151.156;2022-12-20T09:36:23;21.30;99.90
16114;DHT22;8161;-33.910;151.156;2022-12-20T09:38:51;21.80;99.90
16114;DHT22;8161;-33.910;151.156;2022-12-20T09:43:52;21.30;99.90
16114;DHT22;8161;-33.910;151.156;2022-12-20T09:46:22;21.10;99.90
16114;DHT22;8161;-33.910;151.156;2022-12-20T09:48:50;21.40;99.90
16114;DHT22;8161;-33.910;151.156;2022-12-20T09:59:19;20.80;99.90
16114;DHT22;8161;-33.910;151.156;2022-12-20T10:01:48;20.80;99.90
16114;DHT22;8161;-33.910;151.156;2022-12-20T10:04:26;21.10;99.90
16114;DHT22;8161;-33.910;151.156;2022-12-20T10:12:18;20.90;99.90
16114;DHT22;8161;-33.910;151.156;2022-12-20T10:15:20;20.70;99.90
16114;DHT22;8161;-33.910;151.156;2022-12-20T10:26:09;20.90;99.90
16114;DHT22;8161;-33.910;151.156;2022-12-20T10:28:37;20.70;99.90
16114;DHT22;8161;-33.910;151.156;2022-12-20T10:31:13;20.70;99.90
16114;DHT22;8161;-33.910;151.156;2022-12-20T10:33:43;20.90;99.90
16114;DHT22;8161;-33.910;151.156;2022-12-20T10:36:25;20.60;99.90
16114;DHT22;8161;-33.910;151.156;2022-12-20T10:39:13;20.90;99.90
16114;DHT22;8161;-33.910;151.156;2022-12-20T10:46:58;20.80;99.90
16114;DHT22;8161;-33.910;151.156;2022-12-20T10:49:36;20.80;99.90
16114;DHT22;8161;-33.910;151.156;2022-12-20T10:52:12;19.80;99.90
16114;DHT22;8161;-33.910;151.156;2022-12-20T10:54:44;20.40;99.90
16114;DHT22;8161;-33.910;151.156;2022-12-20T10:57:26;20.40;99.90
16114;DHT22;8161;-33.910;151.156;2022-12-20T10:59:58;20.40;99.90
16114;DHT22;8161;-33.910;151.156;2022-12-20T11:02:37;20.60;99.90
16114;DHT22;8161;-33.910;151.156;2022-12-20T11:07:54;20.40;99.90
16114;DHT22;8161;-33.910;151.156;2022-12-20T11:10:28;19.90;99.90
16114;DHT22;8161;-33.910;151.156;2022-12-20T11:13:01;20.80;99.90
16114;DHT22;8161;-33.910;151.156;2022-12-20T11:15:31;20.50;99.90
16114;DHT22;8161;-33.910;151.156;2022-12-20T11:18:08;20.30;99.90
16114;DHT22;8161;-33.910;151.156;2022-12-20T11:23:25;20.40;99.90
16114;DHT22;8161;-33.910;151.156;2022-12-20T11:34:21;20.50;99.90
16114;DHT22;8161;-33.910;151.156;2022-12-20T11:42:51;20.20;99.90
16114;DHT22;8161;-33.910;151.156;2022-12-20T11:56:35;20.50;99.90
16114;DHT22;8161;-33.910;151.156;2022-12-20T12:02:33;20.00;99.90
16114;DHT22;8161;-33.910;151.156;2022-12-20T12:05:06;20.10;99.90
16114;DHT22;8161;-33.910;151.156;2022-12-20T12:07:37;20.20;99.90
16114;DHT22;8161;-33.910;151.156;2022-12-20T12:18:34;20.00;99.90
16114;DHT22;8161;-33.910;151.156;2022-12-20T12:21:07;20.20;99.90
16114;DHT22;8161;-33.910;151.156;2022-12-20T12:26:34;19.80;99.90
16114;DHT22;8161;-33.910;151.156;2022-12-20T12:29:05;20.30;99.90
16114;DHT22;8161;-33.910;151.156;2022-12-20T12:40:11;20.10;99.90
16114;DHT22;8161;-33.910;151.156;2022-12-20T12:50:41;20.20;99.90
16114;DHT22;8161;-33.910;151.156;2022-12-20T12:55:53;19.70;99.90
16114;DHT22;8161;-33.910;151.156;2022-12-20T13:00:55;19.90;99.90
16114;DHT22;8161;-33.910;151.156;2022-12-20T13:11:31;19.30;99.90
16114;DHT22;8161;-33.910;151.156;2022-12-20T13:19:52;19.20;99.90
16114;DHT22;8161;-33.910;151.156;2022-12-20T13:22:24;19.20;99.90
16114;DHT22;8161;-33.910;151.156;2022-12-20T13:25:00;19.70;99.90
16114;DHT22;8161;-33.910;151.156;2022-12-20T13:27:39;19.70;99.90
16114;DHT22;8161;-33.910;151.156;2022-12-20T13:35:29;19.80;99.90
16114;DHT22;8161;-33.910;151.156;2022-12-20T13:40:49;19.60;99.90
16114;DHT22;8161;-33.910;151.156;2022-12-20T13:48:54;19.60;99.90
16114;DHT22;8161;-33.910;151.156;2022-12-20T13:51:25;19.50;99.90
16114;DHT22;8161;-33.910;151.156;2022-12-20T13:56:37;19.60;99.90
16114;DHT22;8161;-33.910;151.156;2022-12-20T14:02:03;19.30;99.90
16114;DHT22;8161;-33.910;151.156;2022-12-20T14:04:43;19.40;99.90
16114;DHT22;8161;-33.910;151.156;2022-12-20T14:07:15;19.10;99.90
16114;DHT22;8161;-33.910;151.156;2022-12-20T14:09:55;19.10;99.90
16114;DHT22;8161;-33.910;151.156;2022-12-20T14:12:23;19.10;99.90
16114;DHT22;8161;-33.910;151.156;2022-12-20T14:14:51;19.20;99.90
16114;DHT22;8161;-33.910;151.156;2022-12-20T14:17:30;19.00;99.90
16114;DHT22;8161;-33.910;151.156;2022-12-20T14:20:14;18.90;99.90
16114;DHT22;8161;-33.910;151.156;2022-12-20T14:25:48;19.00;99.90
16114;DHT22;8161;-33.910;151.156;2022-12-20T14:28:41;19.00;99.90
16114;DHT22;8161;-33.910;151.156;2022-12-20T14:36:28;19.00;99.90
16114;DHT22;8161;-33.910;151.156;2022-12-20T14:44:24;18.70;99.90
16114;DHT22;8161;-33.910;151.156;2022-12-20T14:47:02;18.60;99.90
16114;DHT22;8161;-33.910;151.156;2022-12-20T14:49:35;18.80;99.90
16114;DHT22;8161;-33.910;151.156;2022-12-20T14:52:15;19.00;99.90
16114;DHT22;8161;-33.910;151.156;2022-12-20T14:57:30;18.80;99.90
16114;DHT22;8161;-33.910;151.156;2022-12-20T15:02:57;18.60;99.90
16114;DHT22;8161;-33.910;151.156;2022-12-20T15:08:16;18.30;99.90
16114;DHT22;8161;-33.910;151.156;2022-12-20T15:13:52;18.20;99.90
16114;DHT22;8161;-33.910;151.156;2022-12-20T15:16:26;18.50;99.90
16114;DHT22;8161;-33.910;151.156;2022-12-20T15:18:59;18.50;99.90
16114;DHT22;8161;-33.910;151.156;2022-12-20T15:21:35;18.50;99.90
16114;DHT22;8161;-33.910;151.156;2022-12-20T15:24:11;18.60;99.90
16114;DHT22;8161;-33.910;151.156;2022-12-20T15:26:38;18.50;99.90
16114;DHT22;8161;-33.910;151.156;2022-12-20T15:29:09;18.40;99.90
16114;DHT22;8161;-33.910;151.156;2022-12-20T15:31:38;18.30;99.90
16114;DHT22;8161;-33.910;151.156;2022-12-20T15:34:32;18.10;99.90
16114;DHT22;8161;-33.910;151.156;2022-12-20T15:37:01;17.70;99.90
16114;DHT22;8161;-33.910;151.156;2022-12-20T15:39:29;17.70;99.90
16114;DHT22;8161;-33.910;151.156;2022-12-20T15:42:00;18.10;99.90
16114;DHT22;8161;-33.910;151.156;2022-12-20T15:44:31;18.10;99.90
16114;DHT22;8161;-33.910;151.156;2022-12-20T15:47:01;17.80;99.90
16114;DHT22;8161;-33.910;151.156;2022-12-20T15:49:30;17.90;99.90
16114;DHT22;8161;-33.910;151.156;2022-12-20T15:51:58;17.80;99.90
16114;DHT22;8161;-33.910;151.156;2022-12-20T15:54:29;18.00;99.90
16114;DHT22;8161;-33.910;151.156;2022-12-20T15:56:59;18.00;99.90
16114;DHT22;8161;-33.910;151.156;2022-12-20T15:59:33;18.20;99.90
16114;DHT22;8161;-33.910;151.156;2022-12-20T16:02:00;18.40;99.90
16114;DHT22;8161;-33.910;151.156;2022-12-20T16:04:27;18.00;99.90
16114;DHT22;8161;-33.910;151.156;2022-12-20T16:06:55;18.30;99.90
16114;DHT22;8161;-33.910;151.156;2022-12-20T16:09:22;18.10;99.90
16114;DHT22;8161;-33.910;151.156;2022-12-20T16:11:51;17.90;99.90
16114;DHT22;8161;-33.910;151.156;2022-12-20T16:14:20;18.10;99.90
16114;DHT22;8161;-33.910;151.156;2022-12-20T16:16:47;18.00;99.90
16114;DHT22;8161;-33.910;151.156;2022-12-20T16:19:16;17.80;99.90
16114;DHT22;8161;-33.910;151.156;2022-12-20T16:21:49;18.00;99.90
16114;DHT22;8161;-33.910;151.156;2022-12-20T16:24:18;17.90;99.90
16114;DHT22;8161;-33.910;151.156;2022-12-20T16:26:48;17.80;99.90
16114;DHT22;8161;-33.910;151.156;2022-12-20T16:29:15;17.90;99.90
16114;DHT22;8161;-33.910;151.156;2022-12-20T16:31:42;17.80;99.90
16114;DHT22;8161;-33.910;151.156;2022-12-20T16:34:16;17.60;99.90
16114;DHT22;8161;-33.910;151.156;2022-12-20T16:36:45;17.80;99.90
16114;DHT22;8161;-33.910;151.156;2022-12-20T16:39:13;17.90;99.90
16114;DHT22;8161;-33.910;151.156;2022-12-20T16:41:41;17.60;99.90
16114;DHT22;8161;-33.910;151.156;2022-12-20T16:44:16;17.90;99.90
16114;DHT22;8161;-33.910;151.156;2022-12-20T16:46:44;18.10;99.90
16114;DHT22;8161;-33.910;151.156;2022-12-20T16:49:12;17.70;99.90
16114;DHT22;8161;-33.910;151.156;2022-12-20T16:51:44;18.00;99.90
16114;DHT22;8161;-33.910;151.156;2022-12-20T16:54:19;17.70;99.90
16114;DHT22;8161;-33.910;151.156;2022-12-20T16:56:51;17.60;99.90
16114;DHT22;8161;-33.910;151.156;2022-12-20T16:59:23;18.10;99.90
16114;DHT22;8161;-33.910;151.156;2022-12-20T17:01:52;17.70;99.90
16114;DHT22;8161;-33.910;151.156;2022-12-20T17:04:20;17.70;99.90
16114;DHT22;8161;-33.910;151.156;2022-12-20T17:06:48;17.50;99.90
16114;DHT22;8161;-33.910;151.156;2022-12-20T17:09:16;17.60;99.90
16114;DHT22;8161;-33.910;151.156;2022-12-20T17:11:43;17.80;99.90
16114;DHT22;8161;-33.910;151.156;2022-12-20T17:14:12;17.70;99.90
16114;DHT22;8161;-33.910;151.156;2022-12-20T17:16:40;17.90;99.90
16114;DHT22;8161;-33.910;151.156;2022-12-20T17:19:08;18.00;99.90
16114;DHT22;8161;-33.910;151.156;2022-12-20T17:24:04;18.00;99.90
16114;DHT22;8161;-33.910;151.156;2022-12-20T17:26:33;17.80;99.90
16114;DHT22;8161;-33.910;151.156;2022-12-20T17:29:00;17.50;99.90
16114;DHT22;8161;-33.910;151.156;2022-12-20T17:31:32;17.70;99.90
16114;DHT22;8161;-33.910;151.156;2022-12-20T17:34:20;17.40;99.90
16114;DHT22;8161;-33.910;151.156;2022-12-20T17:36:49;17.90;99.90
16114;DHT22;8161;-33.910;151.156;2022-12-20T17:39:17;17.80;99.90
16114;DHT22;8161;-33.910;151.156;2022-12-20T17:41:45;17.50;99.90
16114;DHT22;8161;-33.910;151.156;2022-12-20T17:44:24;17.80;99.90
16114;DHT22;8161;-33.910;151.156;2022-12-20T17:46:54;17.20;99.90
16114;DHT22;8161;-33.910;151.156;2022-12-20T17:49:22;17.60;99.90
16114;DHT22;8161;-33.910;151.156;2022-12-20T17:51:50;17.30;99.90
16114;DHT22;8161;-33.910;151.156;2022-12-20T17:54:21;17.20;99.90
16114;DHT22;8161;-33.910;151.156;2022-12-20T17:56:49;17.30;99.90
16114;DHT22;8161;-33.910;151.156;2022-12-20T17:59:17;17.30;99.90
16114;DHT22;8161;-33.910;151.156;2022-12-20T18:01:45;16.90;99.90
16114;DHT22;8161;-33.910;151.156;2022-12-20T18:04:14;16.90;99.90
16114;DHT22;8161;-33.910;151.156;2022-12-20T18:06:43;17.10;99.90
16114;DHT22;8161;-33.910;151.156;2022-12-20T18:09:16;17.10;99.90
16114;DHT22;8161;-33.910;151.156;2022-12-20T18:11:44;17.20;99.90
16114;DHT22;8161;-33.910;151.156;2022-12-20T18:14:12;17.10;99.90
16114;DHT22;8161;-33.910;151.156;2022-12-20T18:16:43;17.20;99.90